createdAt,value
2023-07-25T00:00:09.519Z,19.30
2023-07-25T00:02:38.158Z,19.30
2023-07-25T00:05:07.118Z,19.20
2023-07-25T00:07:35.764Z,19.20
2023-07-25T00:10:04.554Z,19.20
2023-07-25T00:12:33.176Z,19.20
2023-07-25T00:15:01.875Z,19.20
2023-07-25T00:17:30.606Z,19.20
2023-07-25T00:19:59.594Z,19.20
2023-07-25T00:22:28.258Z,19.20
2023-07-25T00:24:56.926Z,19.20
2023-07-25T00:27:25.605Z,19.20
2023-07-25T00:29:54.711Z,19.20
2023-07-25T00:32:23.397Z,19.20
2023-07-25T00:34:54.966Z,19.20
2023-07-25T00:37:23.603Z,19.10
2023-07-25T00:39:54.728Z,19.10
2023-07-25T00:42:23.707Z,19.10
2023-07-25T00:44:52.786Z,19.10
2023-07-25T00:47:24.065Z,19.10
2023-07-25T00:49:53.224Z,19.10
2023-07-25T00:52:22.094Z,19.00
2023-07-25T00:54:52.257Z,19.00
2023-07-25T00:57:21.834Z,19.00
2023-07-25T00:59:50.527Z,19.00
2023-07-25T01:02:19.368Z,19.00
2023-07-25T01:04:48.035Z,19.00
2023-07-25T01:07:17.505Z,19.00
2023-07-25T01:09:47.651Z,19.00
2023-07-25T01:12:16.435Z,18.90
2023-07-25T01:14:45.822Z,18.90
2023-07-25T01:17:19.988Z,18.90
2023-07-25T01:19:49.153Z,18.90
2023-07-25T01:22:18.634Z,18.90
2023-07-25T01:24:49.385Z,18.90
2023-07-25T01:27:18.503Z,18.90
2023-07-25T01:29:47.153Z,18.90
2023-07-25T01:32:15.810Z,18.90
2023-07-25T01:34:44.494Z,18.80
2023-07-25T01:37:13.321Z,18.90
2023-07-25T01:39:43.600Z,18.80
2023-07-25T01:42:12.318Z,18.90
2023-07-25T01:44:40.937Z,18.80
2023-07-25T01:47:10.099Z,18.80
2023-07-25T01:49:38.738Z,18.80
2023-07-25T01:52:07.962Z,18.80
2023-07-25T01:54:36.597Z,18.70
2023-07-25T01:57:05.555Z,18.70
2023-07-25T01:59:34.195Z,18.60
2023-07-25T02:02:03.134Z,18.60
2023-07-25T02:04:31.777Z,18.60
2023-07-25T02:07:00.496Z,18.60
2023-07-25T02:09:29.189Z,18.50
2023-07-25T02:11:59.631Z,18.50
2023-07-25T02:14:28.254Z,18.50
2023-07-25T02:16:56.888Z,18.50
2023-07-25T02:19:25.528Z,18.40
2023-07-25T02:21:54.171Z,18.40
2023-07-25T02:24:23.013Z,18.30
2023-07-25T02:26:51.617Z,18.20
2023-07-25T02:29:20.257Z,18.20
2023-07-25T02:31:48.975Z,18.20
2023-07-25T02:34:18.254Z,18.10
2023-07-25T02:36:46.884Z,18.10
2023-07-25T02:39:15.546Z,18.10
2023-07-25T02:41:44.182Z,18.10
2023-07-25T02:44:12.817Z,18.10
2023-07-25T02:46:41.475Z,18.10
2023-07-25T02:49:10.074Z,18.10
2023-07-25T02:51:38.714Z,18.10
2023-07-25T02:54:07.364Z,18.10
2023-07-25T02:56:35.978Z,18.10
2023-07-25T02:59:04.608Z,18.10
2023-07-25T03:01:33.464Z,18.10
2023-07-25T03:04:02.292Z,18.10
2023-07-25T03:06:30.939Z,18.10
2023-07-25T03:08:59.555Z,18.10
2023-07-25T03:11:28.249Z,18.10
2023-07-25T03:13:56.877Z,18.00
2023-07-25T03:16:25.561Z,18.00
2023-07-25T03:18:54.378Z,18.00
2023-07-25T03:21:22.994Z,17.90
2023-07-25T03:23:51.638Z,17.90
2023-07-25T03:26:20.426Z,17.90
2023-07-25T03:28:49.084Z,17.80
2023-07-25T03:31:17.706Z,17.70
2023-07-25T03:33:46.331Z,17.70
2023-07-25T03:36:14.954Z,17.70
2023-07-25T03:38:43.606Z,17.60
2023-07-25T03:41:12.298Z,17.60
2023-07-25T03:43:40.924Z,17.50
2023-07-25T03:46:09.696Z,17.50
2023-07-25T03:48:38.376Z,17.50
2023-07-25T03:51:07.090Z,17.50
2023-07-25T03:53:35.741Z,17.50
2023-07-25T03:56:04.384Z,17.40
2023-07-25T03:58:33.017Z,17.40
2023-07-25T04:01:01.661Z,17.40
2023-07-25T04:03:30.474Z,17.40
2023-07-25T04:05:59.247Z,17.40
2023-07-25T04:08:27.890Z,17.40
2023-07-25T04:10:56.686Z,17.40
2023-07-25T04:13:25.359Z,17.40
2023-07-25T04:15:53.995Z,17.40
2023-07-25T04:18:22.588Z,17.30
2023-07-25T04:20:51.261Z,17.40
2023-07-25T04:23:21.519Z,17.30
2023-07-25T04:25:50.892Z,17.30
2023-07-25T04:28:19.760Z,17.30
2023-07-25T04:30:48.390Z,17.40
2023-07-25T04:33:17.076Z,17.30
2023-07-25T04:35:46.562Z,17.40
2023-07-25T04:38:18.798Z,17.40
2023-07-25T04:40:47.559Z,17.40
2023-07-25T04:43:16.274Z,17.40
2023-07-25T04:45:47.074Z,17.40
2023-07-25T04:48:15.264Z,17.40
2023-07-25T04:50:43.901Z,17.50
2023-07-25T04:53:12.645Z,17.50
2023-07-25T04:55:41.337Z,17.60
2023-07-25T04:58:09.941Z,17.70
2023-07-25T05:00:38.595Z,17.70
2023-07-25T05:03:07.278Z,17.80
2023-07-25T05:05:36.099Z,17.90
2023-07-25T05:08:04.861Z,18.00
2023-07-25T05:10:35.136Z,18.20
2023-07-25T05:13:03.846Z,18.30
2023-07-25T05:15:32.458Z,18.60
2023-07-25T05:18:01.130Z,18.80
2023-07-25T05:20:29.759Z,19.00
2023-07-25T05:22:58.411Z,19.20
2023-07-25T05:25:27.072Z,19.50
2023-07-25T05:27:55.702Z,19.70
2023-07-25T05:30:24.365Z,20.00
2023-07-25T05:32:53.022Z,20.30
2023-07-25T05:35:21.642Z,20.50
2023-07-25T05:37:50.427Z,20.80
2023-07-25T05:40:19.064Z,21.00
2023-07-25T05:42:48.958Z,21.20
2023-07-25T05:45:17.664Z,21.30
2023-07-25T05:47:46.330Z,21.30
2023-07-25T05:50:15.281Z,21.30
2023-07-25T05:52:43.911Z,21.20
2023-07-25T05:55:12.740Z,21.10
2023-07-25T05:57:41.348Z,21.00
2023-07-25T06:00:10.988Z,20.90
2023-07-25T06:02:39.727Z,20.80
2023-07-25T06:05:09.891Z,20.70
2023-07-25T06:07:38.526Z,20.60
2023-07-25T06:10:08.015Z,20.50
2023-07-25T06:12:36.780Z,20.50
2023-07-25T06:15:05.969Z,20.50
2023-07-25T06:17:34.729Z,20.50
2023-07-25T06:20:03.455Z,20.50
2023-07-25T06:22:32.193Z,20.40
2023-07-25T06:25:00.929Z,20.40
2023-07-25T06:27:29.643Z,20.30
2023-07-25T06:29:58.537Z,20.30
2023-07-25T06:32:27.472Z,20.30
2023-07-25T06:34:57.717Z,20.30
2023-07-25T06:37:26.461Z,20.40
2023-07-25T06:39:55.103Z,20.50
2023-07-25T06:42:23.757Z,20.60
2023-07-25T06:44:52.384Z,20.70
2023-07-25T06:47:21.045Z,20.80
2023-07-25T06:49:49.685Z,20.80
2023-07-25T06:52:18.413Z,20.80
2023-07-25T06:54:47.130Z,20.70
2023-07-25T06:57:15.776Z,20.70
2023-07-25T06:59:44.450Z,20.60
2023-07-25T07:02:13.317Z,20.60
2023-07-25T07:04:42.094Z,20.50
2023-07-25T07:07:10.826Z,20.50
2023-07-25T07:09:39.487Z,20.50
2023-07-25T07:12:08.581Z,20.60
2023-07-25T07:14:37.245Z,20.60
2023-07-25T07:17:05.978Z,20.70
2023-07-25T07:19:34.769Z,21.00
2023-07-25T07:22:03.615Z,21.10
2023-07-25T07:24:32.309Z,21.20
2023-07-25T07:27:00.994Z,21.30
2023-07-25T07:29:31.707Z,21.40
2023-07-25T07:32:01.613Z,21.30
2023-07-25T07:34:31.425Z,21.30
2023-07-25T07:37:00.099Z,21.30
2023-07-25T07:39:28.763Z,21.20
2023-07-25T07:41:58.112Z,21.10
2023-07-25T07:44:26.822Z,21.00
2023-07-25T07:46:55.502Z,21.00
2023-07-25T07:49:24.204Z,20.90
2023-07-25T07:52:09.653Z,20.90
2023-07-25T07:54:24.817Z,20.90
2023-07-25T07:56:53.505Z,20.80
2023-07-25T07:59:24.061Z,20.70
2023-07-25T08:01:53.177Z,20.80
2023-07-25T08:04:22.684Z,20.80
2023-07-25T08:06:51.508Z,20.80
2023-07-25T08:09:20.186Z,20.80
2023-07-25T08:11:50.566Z,20.80
2023-07-25T08:14:19.279Z,20.90
2023-07-25T08:16:47.970Z,20.90
2023-07-25T08:19:16.668Z,20.90
2023-07-25T08:21:45.335Z,20.90
2023-07-25T08:24:14.197Z,20.90
2023-07-25T08:26:43.039Z,20.90
2023-07-25T08:29:12.094Z,20.90
2023-07-25T08:31:40.983Z,20.90
2023-07-25T08:34:09.821Z,20.90
2023-07-25T08:36:39.082Z,20.90
2023-07-25T08:39:08.046Z,21.00
2023-07-25T08:41:39.801Z,21.00
2023-07-25T08:44:13.392Z,21.10
2023-07-25T08:46:45.492Z,21.20
2023-07-25T08:49:19.653Z,21.30
2023-07-25T08:51:51.772Z,21.50
2023-07-25T08:54:29.093Z,21.70
2023-07-25T08:56:58.235Z,21.90
2023-07-25T08:59:27.901Z,22.10
2023-07-25T09:01:57.438Z,22.30
2023-07-25T09:04:28.955Z,22.40
2023-07-25T09:06:57.741Z,22.50
2023-07-25T09:09:26.517Z,22.60
2023-07-25T09:11:56.908Z,22.70
2023-07-25T09:14:27.281Z,22.70
2023-07-25T09:16:56.428Z,22.70
2023-07-25T09:19:25.212Z,22.70
2023-07-25T09:21:54.890Z,22.70
2023-07-25T09:24:23.628Z,22.60
2023-07-25T09:26:53.886Z,22.50
2023-07-25T09:29:24.207Z,22.40
2023-07-25T09:31:52.906Z,22.30
2023-07-25T09:34:24.609Z,22.20
2023-07-25T09:36:53.357Z,22.10
2023-07-25T09:39:22.155Z,22.00
2023-07-25T09:41:52.784Z,21.90
2023-07-25T09:44:21.665Z,21.80
2023-07-25T09:46:54.310Z,21.80
2023-07-25T09:49:24.246Z,21.70
2023-07-25T09:52:01.158Z,21.70
2023-07-25T09:54:29.924Z,21.70
2023-07-25T09:56:59.086Z,21.70
2023-07-25T09:59:28.425Z,21.70
2023-07-25T10:01:59.655Z,21.80
2023-07-25T10:04:28.867Z,21.90
2023-07-25T10:07:01.015Z,22.00
2023-07-25T10:09:31.621Z,22.20
2023-07-25T10:12:00.460Z,22.30
2023-07-25T10:14:29.171Z,22.50
2023-07-25T10:16:59.935Z,22.70
2023-07-25T10:19:28.722Z,23.00
2023-07-25T10:21:57.634Z,23.30
2023-07-25T10:24:26.593Z,23.50
2023-07-25T10:27:00.595Z,23.80
2023-07-25T10:29:42.825Z,23.90
2023-07-25T10:32:16.971Z,24.20
2023-07-25T10:34:57.337Z,24.40
2023-07-25T10:37:35.776Z,24.70
2023-07-25T10:40:16.121Z,25.00
2023-07-25T10:45:32.769Z,25.40
2023-07-25T10:48:02.128Z,25.60
2023-07-25T10:50:49.225Z,25.80
2023-07-25T10:53:23.909Z,26.00
2023-07-25T10:56:10.594Z,26.00
2023-07-25T10:58:59.514Z,25.90
2023-07-25T11:01:36.242Z,25.90
2023-07-25T11:04:33.417Z,25.70
2023-07-25T11:07:14.666Z,25.60
2023-07-25T11:09:45.060Z,25.40
2023-07-25T11:12:15.303Z,25.30
2023-07-25T11:14:45.559Z,25.10
2023-07-25T11:17:15.238Z,25.00
2023-07-25T11:19:44.012Z,24.90
2023-07-25T11:22:13.581Z,24.80
2023-07-25T11:24:49.582Z,24.80
2023-07-25T11:27:19.668Z,24.70
2023-07-25T11:29:48.329Z,24.20
2023-07-25T11:32:16.983Z,24.60
2023-07-25T11:34:50.600Z,24.40
2023-07-25T11:37:19.266Z,24.40
2023-07-25T11:39:47.913Z,24.30
2023-07-25T11:42:17.251Z,24.30
2023-07-25T11:44:46.761Z,24.10
2023-07-25T11:47:15.469Z,24.10
2023-07-25T11:49:55.970Z,24.00
2023-07-25T11:52:15.846Z,24.00
2023-07-25T11:54:44.624Z,24.10
2023-07-25T11:57:13.790Z,24.30
2023-07-25T11:59:43.574Z,24.50
2023-07-25T12:02:14.024Z,24.60
2023-07-25T12:04:46.581Z,24.80
2023-07-25T12:07:15.904Z,24.80
2023-07-25T12:09:55.094Z,24.80
2023-07-25T12:12:23.771Z,24.70
2023-07-25T12:14:58.369Z,24.60
2023-07-25T12:17:46.632Z,24.50
2023-07-25T12:20:15.410Z,24.40
2023-07-25T12:22:44.308Z,24.20
2023-07-25T12:25:14.730Z,24.10
2023-07-25T12:27:47.618Z,24.00
2023-07-25T12:30:17.003Z,23.80
2023-07-25T12:32:45.708Z,23.60
2023-07-25T12:35:14.361Z,23.50
2023-07-25T12:37:43.087Z,23.30
2023-07-25T12:40:12.187Z,23.20
2023-07-25T12:42:40.803Z,23.00
2023-07-25T12:45:11.465Z,22.90
2023-07-25T12:47:39.910Z,22.70
2023-07-25T12:50:09.995Z,22.60
2023-07-25T12:52:38.796Z,22.50
2023-07-25T12:55:09.517Z,22.40
2023-07-25T12:57:38.528Z,22.40
2023-07-25T13:00:08.680Z,22.30
2023-07-25T13:02:38.012Z,22.30
2023-07-25T13:05:07.997Z,22.20
2023-07-25T13:07:36.923Z,22.20
2023-07-25T13:10:07.741Z,22.10
2023-07-25T13:12:36.845Z,22.10
2023-07-25T13:15:09.434Z,22.20
2023-07-25T13:17:38.151Z,22.20
2023-07-25T13:20:09.335Z,22.30
2023-07-25T13:22:38.407Z,22.40
2023-07-25T13:25:07.980Z,22.60
2023-07-25T13:27:36.708Z,22.80
2023-07-25T13:30:05.911Z,23.00
2023-07-25T13:32:34.676Z,23.10
2023-07-25T13:35:03.649Z,23.30
2023-07-25T13:37:32.429Z,23.30
2023-07-25T13:40:01.236Z,23.20
2023-07-25T13:42:29.927Z,23.20
2023-07-25T13:44:58.602Z,23.00
2023-07-25T13:47:27.219Z,22.80
2023-07-25T13:49:56.416Z,22.60
2023-07-25T13:52:25.008Z,22.50
2023-07-25T13:54:53.726Z,22.30
2023-07-25T13:57:25.917Z,22.20
2023-07-25T13:59:52.622Z,22.10
2023-07-25T14:02:21.590Z,22.10
2023-07-25T14:04:50.354Z,22.00
2023-07-25T14:07:19.357Z,22.00
2023-07-25T14:09:48.018Z,22.00
2023-07-25T14:12:16.702Z,22.00
2023-07-25T14:14:45.326Z,22.00
2023-07-25T14:17:14.190Z,22.10
2023-07-25T14:19:44.281Z,22.10
2023-07-25T14:22:12.873Z,22.30
2023-07-25T14:24:41.540Z,22.40
2023-07-25T14:27:10.178Z,22.50
2023-07-25T14:29:39.193Z,22.60
2023-07-25T14:32:08.473Z,22.80
2023-07-25T14:34:37.160Z,22.90
2023-07-25T14:37:06.071Z,23.10
2023-07-25T14:39:35.188Z,23.20
2023-07-25T14:42:04.033Z,23.20
2023-07-25T14:44:32.678Z,23.40
2023-07-25T14:47:01.409Z,23.50
2023-07-25T14:49:30.036Z,23.60
2023-07-25T14:51:59.041Z,23.80
2023-07-25T14:54:27.762Z,23.90
2023-07-25T14:56:56.460Z,24.00
2023-07-25T14:59:25.118Z,24.20
2023-07-25T15:01:53.862Z,24.30
2023-07-25T15:04:22.484Z,24.40
2023-07-25T15:06:51.124Z,24.40
2023-07-25T15:09:19.744Z,24.50
2023-07-25T15:11:48.530Z,24.50
2023-07-25T15:14:17.173Z,24.60
2023-07-25T15:16:46.031Z,24.60
2023-07-25T15:19:14.659Z,24.60
2023-07-25T15:21:43.461Z,24.60
2023-07-25T15:24:12.209Z,24.60
2023-07-25T15:26:40.940Z,24.60
2023-07-25T15:29:09.531Z,24.60
2023-07-25T15:31:38.181Z,24.60
2023-07-25T15:34:06.838Z,24.60
2023-07-25T15:36:35.566Z,24.70
2023-07-25T15:39:04.254Z,24.70
2023-07-25T15:41:33.126Z,24.70
2023-07-25T15:44:02.024Z,24.70
2023-07-25T15:46:30.684Z,24.70
2023-07-25T15:49:00.659Z,24.80
2023-07-25T15:51:29.851Z,24.80
2023-07-25T15:53:58.871Z,24.90
2023-07-25T15:56:27.518Z,25.00
2023-07-25T15:58:56.138Z,25.00
2023-07-25T16:01:24.778Z,25.00
2023-07-25T16:03:53.870Z,25.00
2023-07-25T16:06:22.773Z,25.00
2023-07-25T16:08:51.418Z,25.00
2023-07-25T16:11:20.077Z,24.90
2023-07-25T16:13:49.421Z,24.90
2023-07-25T16:16:18.056Z,24.90
2023-07-25T16:18:46.656Z,25.00
2023-07-25T16:21:15.428Z,25.10
2023-07-25T16:23:44.174Z,25.10
2023-07-25T16:26:12.746Z,25.10
2023-07-25T16:28:42.464Z,25.10
2023-07-25T16:31:30.300Z,25.10
2023-07-25T16:33:41.358Z,25.10
2023-07-25T16:36:09.985Z,25.00
2023-07-25T16:38:38.800Z,24.90
2023-07-25T16:41:08.263Z,24.90
2023-07-25T16:43:36.919Z,24.90
2023-07-25T16:46:05.644Z,25.00
2023-07-25T16:48:34.424Z,25.10
2023-07-25T16:51:03.033Z,25.20
2023-07-25T16:53:32.646Z,25.30
2023-07-25T16:56:01.254Z,25.40
2023-07-25T16:58:29.985Z,25.50
2023-07-25T17:00:58.693Z,25.60
2023-07-25T17:03:27.499Z,25.70
2023-07-25T17:05:56.204Z,25.70
2023-07-25T17:08:27.433Z,25.60
2023-07-25T17:10:56.981Z,25.50
2023-07-25T17:13:25.682Z,25.50
2023-07-25T17:15:54.399Z,25.50
2023-07-25T17:18:23.022Z,25.50
2023-07-25T17:20:51.679Z,25.50
2023-07-25T17:23:20.399Z,25.60
2023-07-25T17:25:49.011Z,25.70
2023-07-25T17:28:17.835Z,25.70
2023-07-25T17:30:46.604Z,25.70
2023-07-25T17:33:15.249Z,25.70
2023-07-25T17:35:43.866Z,25.60
2023-07-25T17:38:16.107Z,25.60
2023-07-25T17:40:45.356Z,25.60
2023-07-25T17:43:14.993Z,25.50
2023-07-25T17:45:43.685Z,25.40
2023-07-25T17:48:14.003Z,25.40
2023-07-25T17:50:42.688Z,25.30
2023-07-25T17:53:11.479Z,25.20
2023-07-25T17:55:41.660Z,25.10
2023-07-25T17:58:12.297Z,25.10
2023-07-25T18:00:41.234Z,25.00
2023-07-25T18:03:10.039Z,24.80
2023-07-25T18:05:38.728Z,25.10
2023-07-25T18:08:07.377Z,24.70
2023-07-25T18:10:36.077Z,24.60
2023-07-25T18:13:04.768Z,24.60
2023-07-25T18:15:33.602Z,24.50
2023-07-25T18:18:02.238Z,24.40
2023-07-25T18:20:31.005Z,24.30
2023-07-25T18:22:59.623Z,24.30
2023-07-25T18:25:28.361Z,24.20
2023-07-25T18:27:57.076Z,24.10
2023-07-25T18:30:25.706Z,24.10
2023-07-25T18:32:54.500Z,24.00
2023-07-25T18:35:24.789Z,24.00
2023-07-25T18:37:53.471Z,23.90
2023-07-25T18:40:22.124Z,23.80
2023-07-25T18:42:50.927Z,23.70
2023-07-25T18:45:19.539Z,23.60
2023-07-25T18:47:48.250Z,23.60
2023-07-25T18:50:16.851Z,23.50
2023-07-25T18:52:45.498Z,23.40
2023-07-25T18:55:14.216Z,23.30
2023-07-25T18:57:42.824Z,23.20
2023-07-25T19:00:11.879Z,23.20
2023-07-25T19:02:40.627Z,23.10
2023-07-25T19:05:09.803Z,23.00
2023-07-25T19:07:38.406Z,22.90
2023-07-25T19:10:07.535Z,22.80
2023-07-25T19:12:36.208Z,22.70
2023-07-25T19:15:05.098Z,22.60
2023-07-25T19:17:34.622Z,22.50
2023-07-25T19:20:03.885Z,22.40
2023-07-25T19:22:35.090Z,22.30
2023-07-25T19:25:02.757Z,22.20
2023-07-25T19:27:33.016Z,22.00
2023-07-25T19:30:01.634Z,22.00
2023-07-25T19:32:30.263Z,21.80
2023-07-25T19:34:58.899Z,21.70
2023-07-25T19:37:27.627Z,21.60
2023-07-25T19:39:56.394Z,21.60
2023-07-25T19:42:25.101Z,21.40
2023-07-25T19:44:53.736Z,21.40
2023-07-25T19:47:22.420Z,21.30
2023-07-25T19:49:51.866Z,21.20
2023-07-25T19:52:20.483Z,21.10
2023-07-25T19:54:49.331Z,21.10
2023-07-25T19:57:18.000Z,21.00
2023-07-25T19:59:46.625Z,20.90
2023-07-25T20:02:15.284Z,20.80
2023-07-25T20:04:43.888Z,20.80
2023-07-25T20:07:12.607Z,20.70
2023-07-25T20:09:41.230Z,20.60
2023-07-25T20:12:10.808Z,20.50
2023-07-25T20:14:39.430Z,20.50
2023-07-25T20:17:08.229Z,20.40
2023-07-25T20:19:36.863Z,20.40
2023-07-25T20:22:05.632Z,20.40
2023-07-25T20:24:34.278Z,20.30
2023-07-25T20:27:02.922Z,20.30
2023-07-25T20:29:31.628Z,20.30
2023-07-25T20:32:00.321Z,20.30
2023-07-25T20:34:31.203Z,20.20
2023-07-25T20:36:59.829Z,20.20
2023-07-25T20:39:29.788Z,20.10
2023-07-25T20:41:59.715Z,20.00
2023-07-25T20:44:28.785Z,19.90
2023-07-25T20:46:57.480Z,19.90
2023-07-25T20:49:26.145Z,19.80
2023-07-25T20:51:54.866Z,19.80
2023-07-25T20:54:23.490Z,19.70
2023-07-25T20:56:52.111Z,19.70
2023-07-25T20:59:20.775Z,19.60
2023-07-25T21:01:49.443Z,19.60
2023-07-25T21:04:18.146Z,19.60
2023-07-25T21:06:46.795Z,19.60
2023-07-25T21:09:15.566Z,19.50
2023-07-25T21:11:44.195Z,19.50
2023-07-25T21:14:12.856Z,19.50
2023-07-25T21:16:41.688Z,19.50
2023-07-25T21:19:10.361Z,19.40
2023-07-25T21:21:39.129Z,19.40
2023-07-25T21:24:07.858Z,19.30
2023-07-25T21:26:36.556Z,19.30
2023-07-25T21:29:05.194Z,19.20
2023-07-25T21:31:34.296Z,19.20
2023-07-25T21:34:03.963Z,19.10
2023-07-25T21:36:32.890Z,19.10
2023-07-25T21:39:02.104Z,19.10
2023-07-25T21:41:30.826Z,19.00
2023-07-25T21:44:00.937Z,19.00
2023-07-25T21:46:30.179Z,19.00
2023-07-25T21:48:58.877Z,18.90
2023-07-25T21:51:27.592Z,18.90
2023-07-25T21:53:56.372Z,18.80
2023-07-25T21:56:25.063Z,18.70
2023-07-25T21:58:53.772Z,18.70
2023-07-25T22:01:22.433Z,18.60
2023-07-25T22:03:51.132Z,18.60
2023-07-25T22:06:20.546Z,18.50
2023-07-25T22:08:49.460Z,18.50
2023-07-25T22:11:18.161Z,18.50
2023-07-25T22:13:46.784Z,18.50
2023-07-25T22:16:16.113Z,18.40
2023-07-25T22:18:45.099Z,18.40
2023-07-25T22:21:13.809Z,18.40
2023-07-25T22:23:42.440Z,18.40
2023-07-25T22:26:11.182Z,18.30
2023-07-25T22:28:39.834Z,18.30
2023-07-25T22:31:08.629Z,18.20
2023-07-25T22:33:37.470Z,18.20
2023-07-25T22:36:06.307Z,18.10
2023-07-25T22:38:34.926Z,18.10
2023-07-25T22:41:04.627Z,18.10
2023-07-25T22:43:33.277Z,18.10
2023-07-25T22:46:02.054Z,18.00
2023-07-25T22:48:32.418Z,18.00
2023-07-25T22:51:01.123Z,18.00
2023-07-25T22:53:29.734Z,17.90
2023-07-25T22:56:03.336Z,17.90
2023-07-25T22:58:32.338Z,17.90
2023-07-25T23:01:00.989Z,17.90
2023-07-25T23:03:30.560Z,17.90
2023-07-25T23:06:02.299Z,17.90
2023-07-25T23:08:31.067Z,17.80
2023-07-25T23:10:59.737Z,17.90
2023-07-25T23:13:28.546Z,17.90
2023-07-25T23:15:57.194Z,17.90
2023-07-25T23:18:25.851Z,18.00
2023-07-25T23:20:54.523Z,17.90
2023-07-25T23:23:23.333Z,17.90
2023-07-25T23:25:52.004Z,18.00
2023-07-25T23:28:20.881Z,18.00
2023-07-25T23:30:49.648Z,18.00
2023-07-25T23:33:19.193Z,18.00
2023-07-25T23:35:48.004Z,18.10
2023-07-25T23:38:16.729Z,18.10
2023-07-25T23:40:45.412Z,18.10
2023-07-25T23:43:14.042Z,18.10
2023-07-25T23:45:42.681Z,18.10
2023-07-25T23:48:11.371Z,18.10
2023-07-25T23:50:39.992Z,18.10
2023-07-25T23:53:08.656Z,18.10
2023-07-25T23:55:37.351Z,18.10
2023-07-25T23:58:06.348Z,18.10
